Time;durP1;ratioP1;P1;durP2;ratioP2;P2;SDS_P1;SDS_P2;PMS_P1;PMS_P2;Temp;Humidity;BMP_temperature;BMP_pressure;BME280_temperature;BME280_humidity;BME280_pressure;Samples;Min_cycle;Max_cycle;Signal;HPM_P1;HPM_P2
2021/07/14 00:01:26;;;;;;;2.20;1.90;;;;;;;12.65;nan;96143.38;3571486;40;20483;-73
2021/07/14 00:04:18;;;;;;;17.77;2.50;;;;;;;12.67;nan;96130.13;3568365;40;20452;-74
2021/07/14 00:06:46;;;;;;;6.17;2.10;;;;;;;12.56;nan;96127.56;3571424;40;20965;-73
2021/07/14 00:09:14;;;;;;;4.73;1.97;;;;;;;12.44;nan;96125.00;3570374;40;20836;-75
2021/07/14 00:11:45;;;;;;;5.13;2.03;;;;;;;12.45;nan;96126.69;3570706;40;20826;-74
2021/07/14 00:14:28;;;;;;;5.73;1.80;;;;;;;12.23;nan;96125.00;3570075;40;20837;-73
2021/07/14 00:17:24;;;;;;;9.53;1.60;;;;;;;12.16;nan;96115.16;3559903;40;20460;-72
2021/07/14 00:22:40;;;;;;;12.50;1.67;;;;;;;12.23;nan;96103.16;3566990;40;20829;-73
2021/07/14 00:25:12;;;;;;;1.77;1.30;;;;;;;12.24;nan;96102.22;3566565;40;21031;-73
2021/07/14 00:27:43;;;;;;;4.40;2.07;;;;;;;12.18;nan;96090.41;3562196;40;20993;-73
2021/07/14 00:30:22;;;;;;;6.60;2.00;;;;;;;12.20;nan;96101.63;3571196;40;20499;-74
2021/07/14 00:32:50;;;;;;;5.80;2.13;;;;;;;11.91;nan;96106.66;3559794;40;20711;-73
2021/07/14 00:35:19;;;;;;;7.30;1.87;;;;;;;12.07;nan;96100.97;3567297;40;20463;-72
2021/07/14 00:37:46;;;;;;;3.27;1.90;;;;;;;11.94;nan;96080.16;3567391;40;20453;-75
2021/07/14 00:40:15;;;;;;;8.63;1.80;;;;;;;11.97;nan;96094.81;3566600;40;20755;-74
2021/07/14 00:42:46;;;;;;;5.53;1.70;;;;;;;12.02;nan;96098.75;3563410;40;20572;-74
2021/07/14 00:45:15;;;;;;;2.03;1.83;;;;;;;11.87;nan;96092.09;3571056;40;20854;-75
2021/07/14 00:47:47;;;;;;;7.33;2.00;;;;;;;11.75;nan;96087.84;3566518;40;20559;-77
2021/07/14 00:50:19;;;;;;;9.37;2.70;;;;;;;11.85;nan;96086.97;3568797;40;21091;-73
2021/07/14 00:53:11;;;;;;;3.87;2.00;;;;;;;11.90;nan;96081.38;3571790;40;20877;-73
2021/07/14 00:55:40;;;;;;;8.37;2.47;;;;;;;11.96;nan;96069.56;3573147;40;20565;-75
2021/07/14 00:58:09;;;;;;;3.53;2.43;;;;;;;11.82;nan;96070.66;3560546;40;20812;-74
2021/07/14 01:00:38;;;;;;;6.83;3.00;;;;;;;11.72;nan;96059.22;3571187;40;20842;-72
2021/07/14 01:03:07;;;;;;;18.10;3.13;;;;;;;11.54;nan;96036.19;3578135;39;20674;-75
2021/07/14 01:05:41;;;;;;;6.73;2.20;;;;;;;11.60;nan;96014.72;3563494;40;20478;-75
2021/07/14 01:08:16;;;;;;;8.93;1.80;;;;;;;11.71;nan;96021.69;3571987;40;20790;-77
2021/07/14 01:10:48;;;;;;;15.33;2.27;;;;;;;11.75;nan;96036.22;3570226;40;20548;-76
2021/07/14 01:13:24;;;;;;;3.07;2.30;;;;;;;11.75;nan;96059.00;3560593;40;20481;-75
2021/07/14 01:16:01;;;;;;;4.73;2.30;;;;;;;11.76;nan;96072.00;3570579;40;20483;-76
2021/07/14 01:18:34;;;;;;;6.17;2.70;;;;;;;11.52;nan;96066.94;3569411;40;20827;-77
2021/07/14 01:21:05;;;;;;;6.33;2.77;;;;;;;11.66;nan;96081.53;3569538;40;21116;-75
2021/07/14 01:23:46;;;;;;;9.47;2.50;;;;;;;11.44;nan;96095.56;3573841;40;20449;-75
2021/07/14 01:26:30;;;;;;;6.40;2.10;;;;;;;11.28;nan;96112.50;3574347;40;20467;-72
2021/07/14 01:29:06;;;;;;;4.47;2.67;;;;;;;11.28;nan;96114.31;3569242;40;20472;-71
2021/07/14 01:31:36;;;;;;;3.70;2.30;;;;;;;11.39;nan;96119.53;3568690;40;20524;-75
2021/07/14 01:34:07;;;;;;;6.27;2.50;;;;;;;11.33;nan;96096.44;3567782;40;21086;-74
2021/07/14 01:36:37;;;;;;;6.40;2.33;;;;;;;11.55;nan;96127.00;3570433;40;20462;-75
2021/07/14 01:39:06;;;;;;;8.80;2.57;;;;;;;11.58;nan;96132.00;3570420;39;20551;-72
2021/07/14 01:41:38;;;;;;;5.33;2.17;;;;;;;11.61;nan;96134.38;3559583;40;20946;-71
2021/07/14 01:44:08;;;;;;;3.63;2.40;;;;;;;11.61;nan;96126.50;3569222;39;20449;-73
2021/07/14 01:46:38;;;;;;;5.90;2.20;;;;;;;11.68;nan;96124.22;3560436;40;20898;-74
2021/07/14 01:49:11;;;;;;;8.90;2.23;;;;;;;11.75;nan;96135.06;3570634;40;20829;-74
2021/07/14 01:51:42;;;;;;;9.10;2.43;;;;;;;11.76;nan;96144.59;3571228;40;20450;-74
2021/07/14 01:54:13;;;;;;;2.87;1.97;;;;;;;11.74;nan;96151.75;3569766;40;20725;-73
2021/07/14 01:56:42;;;;;;;8.53;2.57;;;;;;;11.84;nan;96160.56;3568327;40;20810;-73
2021/07/14 01:59:12;;;;;;;4.23;2.20;;;;;;;11.90;nan;96165.34;3566744;40;20794;-74
2021/07/14 02:01:43;;;;;;;4.00;2.53;;;;;;;11.97;nan;96168.28;3571522;39;20438;-74
2021/07/14 02:04:31;;;;;;;4.30;2.00;;;;;;;11.99;nan;96155.88;3572071;40;20756;-73
2021/07/14 02:07:05;;;;;;;4.17;2.60;;;;;;;12.17;nan;96154.41;3574351;40;20531;-72
2021/07/14 02:09:35;;;;;;;17.40;2.57;;;;;;;12.21;nan;96149.69;3569510;40;20489;-72
2021/07/14 02:12:07;;;;;;;5.03;2.40;;;;;;;11.86;nan;96153.41;3580871;40;20832;-74
2021/07/14 02:14:43;;;;;;;4.73;2.20;;;;;;;11.95;nan;96150.03;3580730;40;20703;-73
2021/07/14 02:17:16;;;;;;;6.20;2.20;;;;;;;11.96;nan;96141.22;3577614;40;20810;-74
2021/07/14 02:19:49;;;;;;;6.13;2.77;;;;;;;11.99;nan;96134.88;3569891;40;20458;-74
2021/07/14 02:22:17;;;;;;;7.40;3.03;;;;;;;12.05;nan;96134.38;3570950;40;20913;-75
2021/07/14 02:24:46;;;;;;;4.93;2.13;;;;;;;12.10;nan;96128.78;3566609;40;20463;-73
2021/07/14 02:27:16;;;;;;;6.73;2.33;;;;;;;11.97;nan;96121.06;3571592;40;20535;-75
2021/07/14 02:29:47;;;;;;;8.37;2.70;;;;;;;12.01;nan;96128.53;3573075;40;20688;-75
2021/07/14 02:32:19;;;;;;;9.73;2.80;;;;;;;12.06;nan;96125.56;3572193;40;20539;-75
2021/07/14 02:34:49;;;;;;;12.70;2.57;;;;;;;12.06;nan;96120.31;3567707;40;20547;-76
2021/07/14 02:37:29;;;;;;;4.20;2.50;;;;;;;12.11;nan;96107.63;3569073;40;20505;-75
2021/07/14 02:40:00;;;;;;;7.50;3.00;;;;;;;12.14;nan;96102.13;3572553;39;20465;-76
2021/07/14 02:42:31;;;;;;;6.27;2.50;;;;;;;12.09;nan;96103.47;3571416;40;20484;-73
2021/07/14 02:45:04;;;;;;;21.57;2.43;;;;;;;12.11;nan;96112.06;3567854;40;20539;-75
2021/07/14 02:47:36;;;;;;;5.33;2.20;;;;;;;12.09;nan;96119.22;3567203;40;20499;-74
2021/07/14 02:50:06;;;;;;;5.47;2.63;;;;;;;11.99;nan;96113.91;3568755;40;20924;-74
2021/07/14 02:52:36;;;;;;;5.37;2.77;;;;;;;11.95;nan;96123.81;3569323;40;20916;-76
2021/07/14 02:55:07;;;;;;;12.67;2.73;;;;;;;11.82;nan;96115.25;3569101;40;20451;-76
2021/07/14 02:57:38;;;;;;;2.90;2.53;;;;;;;11.52;nan;96100.19;3570759;40;20854;-78
2021/07/14 03:00:09;;;;;;;6.37;2.90;;;;;;;11.59;nan;96099.59;3569700;40;20946;-75
2021/07/14 03:02:38;;;;;;;6.40;2.70;;;;;;;11.50;nan;96105.56;3567576;40;20949;-73
2021/07/14 03:05:07;;;;;;;8.27;2.80;;;;;;;11.34;nan;96113.00;3571929;40;20579;-75
2021/07/14 03:07:37;;;;;;;5.77;2.93;;;;;;;11.44;nan;96106.06;3566730;40;20831;-73
2021/07/14 03:10:07;;;;;;;4.70;3.10;;;;;;;11.57;nan;96105.91;3568183;40;20558;-75
2021/07/14 03:12:37;;;;;;;6.53;2.33;;;;;;;11.55;nan;96118.31;3568283;40;20442;-74
2021/07/14 03:15:09;;;;;;;4.00;2.97;;;;;;;11.64;nan;96126.28;3576457;40;20477;-77
2021/07/14 03:17:39;;;;;;;4.13;2.70;;;;;;;11.58;nan;96116.25;3566688;40;20902;-74
2021/07/14 03:20:11;;;;;;;7.00;3.10;;;;;;;11.69;nan;96125.91;3563510;40;20686;-75
2021/07/14 03:22:45;;;;;;;5.87;2.90;;;;;;;11.66;nan;96126.13;3568079;40;20868;-75
2021/07/14 03:25:13;;;;;;;14.37;2.80;;;;;;;11.71;nan;96133.66;3566889;40;20500;-75
2021/07/14 03:27:43;;;;;;;8.30;3.30;;;;;;;11.60;nan;96118.78;3570825;40;20538;-76
2021/07/14 03:30:14;;;;;;;14.13;4.40;;;;;;;11.57;nan;96114.59;3572009;40;20457;-73
2021/07/14 03:32:42;;;;;;;10.83;3.27;;;;;;;11.43;nan;96109.66;3567045;40;20881;-74
2021/07/14 03:35:11;;;;;;;8.60;3.03;;;;;;;11.62;nan;96116.84;3565911;40;20578;-75
2021/07/14 03:37:40;;;;;;;6.13;3.83;;;;;;;11.59;nan;96117.94;3566359;40;20483;-74
2021/07/14 03:40:09;;;;;;;3.23;2.90;;;;;;;11.54;nan;96119.25;3568094;39;20800;-75
2021/07/14 03:42:38;;;;;;;4.83;3.50;;;;;;;11.46;nan;96118.06;3574227;40;20437;-74
2021/07/14 03:45:08;;;;;;;13.60;3.80;;;;;;;11.52;nan;96122.00;3573279;40;20563;-75
2021/07/14 03:47:40;;;;;;;3.77;3.10;;;;;;;11.51;nan;96125.59;3568143;40;20811;-77
2021/07/14 03:50:09;;;;;;;8.03;3.50;;;;;;;11.52;nan;96115.94;3567701;40;20968;-75
2021/07/14 03:52:38;;;;;;;7.90;3.30;;;;;;;11.61;nan;96121.28;3567935;40;20454;-76
2021/07/14 03:55:09;;;;;;;6.87;3.40;;;;;;;11.51;nan;96130.84;3571847;40;21174;-74
2021/07/14 03:57:38;;;;;;;3.70;2.70;;;;;;;11.42;nan;96121.91;3559502;40;20964;-76
2021/07/14 04:00:08;;;;;;;11.10;3.67;;;;;;;11.43;nan;96126.22;3570391;40;20772;-75
2021/07/14 04:02:39;;;;;;;3.67;3.00;;;;;;;11.47;nan;96130.25;3568614;40;20943;-78
2021/07/14 04:05:08;;;;;;;11.67;3.40;;;;;;;11.60;nan;96122.25;3560672;40;20446;-74
2021/07/14 04:07:38;;;;;;;8.97;3.67;;;;;;;11.77;nan;96130.53;3569005;40;20446;-74
2021/07/14 04:10:08;;;;;;;16.43;3.70;;;;;;;11.83;nan;96124.78;3569753;40;20453;-76
2021/07/14 04:12:36;;;;;;;11.93;3.80;;;;;;;11.74;nan;96125.53;3568577;40;20584;-74
2021/07/14 04:15:04;;;;;;;8.63;3.60;;;;;;;11.65;nan;96130.56;3566891;40;21106;-73
2021/07/14 04:17:32;;;;;;;8.37;3.30;;;;;;;11.55;nan;96131.44;3573257;40;20728;-76
2021/07/14 04:20:01;;;;;;;9.93;3.73;;;;;;;11.42;nan;96128.94;3570256;39;20841;-78
2021/07/14 04:22:30;;;;;;;6.13;3.00;;;;;;;11.42;nan;96126.31;3570647;40;20464;-74
2021/07/14 04:24:59;;;;;;;7.87;3.97;;;;;;;11.59;nan;96130.22;3565747;40;20457;-75
2021/07/14 04:27:27;;;;;;;4.83;3.33;;;;;;;11.73;nan;96122.06;3566845;40;20535;-75
2021/07/14 04:29:55;;;;;;;6.63;3.07;;;;;;;11.77;nan;96122.66;3566035;40;20477;-78
2021/07/14 04:32:24;;;;;;;6.40;3.33;;;;;;;11.80;nan;96119.78;3569632;40;20878;-77
2021/07/14 04:34:51;;;;;;;7.50;3.43;;;;;;;11.85;nan;96118.44;3571701;40;20884;-77
2021/07/14 04:37:21;;;;;;;5.97;3.30;;;;;;;11.93;nan;96115.22;3569004;40;20476;-77
2021/07/14 04:39:48;;;;;;;5.63;3.43;;;;;;;11.97;nan;96132.38;3567245;40;20907;-74
2021/07/14 04:42:16;;;;;;;3.77;2.60;;;;;;;12.00;nan;96137.41;3568965;40;20425;-74
2021/07/14 04:44:50;;;;;;;6.83;3.00;;;;;;;12.07;nan;96140.34;3568315;40;20547;-72
2021/07/14 04:47:18;;;;;;;7.37;3.40;;;;;;;11.98;nan;96136.69;3566134;40;20705;-72
2021/07/14 04:49:47;;;;;;;3.53;3.03;;;;;;;11.94;nan;96130.03;3566393;40;20919;-73
2021/07/14 04:52:15;;;;;;;2.60;2.33;;;;;;;11.78;nan;96126.94;3574428;40;20486;-73
2021/07/14 04:54:44;;;;;;;5.53;3.40;;;;;;;11.85;nan;96130.75;3569397;40;20966;-72
2021/07/14 04:57:12;;;;;;;7.50;3.13;;;;;;;11.92;nan;96124.06;3571215;40;20659;-78
2021/07/14 04:59:41;;;;;;;3.13;2.50;;;;;;;11.86;nan;96119.31;3570963;39;20712;-73
2021/07/14 05:02:09;;;;;;;7.47;3.63;;;;;;;11.94;nan;96121.34;3570060;40;21115;-72
2021/07/14 05:04:36;;;;;;;9.40;3.00;;;;;;;11.72;nan;96125.66;3569157;40;20471;-74
2021/07/14 05:07:08;;;;;;;6.30;3.27;;;;;;;11.95;nan;96126.44;3574148;40;20928;-74
2021/07/14 05:09:39;;;;;;;6.80;2.47;;;;;;;12.10;nan;96131.41;3573914;40;20555;-71
2021/07/14 05:12:08;;;;;;;7.93;2.87;;;;;;;12.20;nan;96127.06;3569351;40;20717;-73
2021/07/14 05:14:36;;;;;;;6.53;2.80;;;;;;;12.23;nan;96117.13;3568283;40;20811;-74
2021/07/14 05:17:04;;;;;;;5.83;3.47;;;;;;;12.22;nan;96114.63;3568141;40;20471;-74
2021/07/14 05:19:32;;;;;;;5.70;3.40;;;;;;;12.33;nan;96113.72;3572365;40;20538;-72
2021/07/14 05:22:00;;;;;;;18.73;9.73;;;;;;;12.34;nan;96103.09;3569433;40;20858;-74
2021/07/14 05:24:28;;;;;;;7.50;4.70;;;;;;;12.21;nan;96115.56;3569956;39;20786;-77
2021/07/14 05:26:56;;;;;;;5.50;3.20;;;;;;;12.48;nan;96122.13;3565416;40;20567;-75
2021/07/14 05:29:26;;;;;;;5.37;2.77;;;;;;;12.53;nan;96122.59;3565738;40;20831;-76
2021/07/14 05:31:54;;;;;;;7.60;3.10;;;;;;;12.71;nan;96118.38;3567503;40;20777;-73
2021/07/14 05:34:22;;;;;;;4.40;3.87;;;;;;;12.73;nan;96116.47;3571015;40;21140;-78
2021/07/14 05:36:50;;;;;;;3.77;3.03;;;;;;;12.73;nan;96115.63;3558739;40;20534;-76
2021/07/14 05:39:18;;;;;;;3.97;3.20;;;;;;;13.21;nan;96115.84;3556848;40;20466;-73
2021/07/14 05:41:46;;;;;;;9.00;3.50;;;;;;;13.08;nan;96115.25;3567627;40;20541;-73
2021/07/14 05:44:14;;;;;;;7.53;3.43;;;;;;;13.12;nan;96111.38;3568540;40;20931;-74
2021/07/14 05:46:43;;;;;;;6.10;2.80;;;;;;;13.29;nan;96114.31;3569968;40;20474;-75
2021/07/14 05:49:11;;;;;;;7.97;3.80;;;;;;;13.12;nan;96113.19;3569052;40;20473;-73
2021/07/14 05:51:40;;;;;;;7.03;3.30;;;;;;;13.10;nan;96110.69;3569308;40;20459;-75
2021/07/14 05:54:08;;;;;;;7.20;3.80;;;;;;;13.07;nan;96116.19;3571709;40;20992;-76
2021/07/14 05:56:35;;;;;;;3.30;2.73;;;;;;;13.37;nan;96111.91;3572451;40;20453;-74
2021/07/14 05:59:03;;;;;;;8.87;3.07;;;;;;;13.34;nan;96114.78;3565323;40;20795;-76
2021/07/14 06:01:53;;;;;;;9.60;3.07;;;;;;;13.19;nan;96109.03;3570418;40;20848;-75
2021/07/14 06:04:24;;;;;;;11.03;2.90;;;;;;;13.04;nan;96121.72;3573386;40;21279;-74
2021/07/14 06:06:52;;;;;;;6.17;3.00;;;;;;;12.98;nan;96117.00;3569803;40;20485;-75
2021/07/14 06:09:21;;;;;;;3.70;2.77;;;;;;;12.94;nan;96120.84;3570065;40;20821;-75
2021/07/14 06:11:48;;;;;;;11.70;5.37;;;;;;;13.14;nan;96127.84;3570943;40;20745;-72
2021/07/14 06:14:16;;;;;;;14.13;7.53;;;;;;;13.18;nan;96131.88;3565834;40;20452;-74
2021/07/14 06:16:45;;;;;;;6.77;3.40;;;;;;;12.81;nan;96135.03;3566455;40;20867;-74
2021/07/14 06:19:13;;;;;;;4.10;2.80;;;;;;;12.41;nan;96135.78;3566378;40;20845;-74
2021/07/14 06:21:41;;;;;;;3.37;3.07;;;;;;;12.83;nan;96124.38;3569267;40;20548;-72
2021/07/14 06:24:09;;;;;;;3.10;2.60;;;;;;;12.86;nan;96140.72;3561339;40;20955;-71
2021/07/14 06:26:37;;;;;;;4.03;3.10;;;;;;;12.93;nan;96138.41;3560960;40;20506;-73
2021/07/14 06:29:05;;;;;;;14.57;3.67;;;;;;;12.90;nan;96140.44;3567779;40;20475;-73
2021/07/14 06:31:33;;;;;;;5.20;2.37;;;;;;;13.13;nan;96136.72;3567276;40;20741;-72
2021/07/14 06:34:03;;;;;;;7.73;3.00;;;;;;;13.16;nan;96143.50;3560286;40;20570;-72
2021/07/14 06:36:32;;;;;;;2.97;2.50;;;;;;;13.25;nan;96142.72;3570533;40;20476;-73
2021/07/14 06:39:02;;;;;;;3.33;2.70;;;;;;;12.83;nan;96153.28;3571670;40;20813;-74
2021/07/14 06:41:30;;;;;;;3.60;2.70;;;;;;;12.70;nan;96145.63;3567868;40;20477;-72
2021/07/14 06:43:59;;;;;;;6.17;2.83;;;;;;;12.68;nan;96142.28;3567903;40;20514;-72
2021/07/14 06:46:29;;;;;;;23.60;13.27;;;;;;;13.05;nan;96139.16;3570811;40;20788;-72
2021/07/14 06:48:57;;;;;;;12.73;3.70;;;;;;;12.97;nan;96131.09;3559936;40;20492;-72
2021/07/14 06:51:26;;;;;;;3.53;2.30;;;;;;;12.75;nan;96134.72;3568981;40;20462;-72
2021/07/14 06:53:54;;;;;;;3.40;2.30;;;;;;;12.65;nan;96130.25;3567505;40;20449;-76
2021/07/14 06:56:22;;;;;;;9.33;2.97;;;;;;;12.92;nan;96128.88;3565566;40;20481;-72
2021/07/14 06:58:50;;;;;;;3.27;2.27;;;;;;;13.19;nan;96130.91;3570046;40;20831;-74
2021/07/14 07:01:18;;;;;;;13.37;2.57;;;;;;;13.39;nan;96131.03;3569570;40;20468;-73
2021/07/14 07:03:46;;;;;;;4.50;2.63;;;;;;;13.40;nan;96128.22;3568013;40;20513;-73
2021/07/14 07:06:14;;;;;;;3.43;2.13;;;;;;;13.64;nan;96135.78;3565316;40;20553;-74
2021/07/14 07:08:44;;;;;;;3.77;2.10;;;;;;;13.69;nan;96131.91;3570431;40;21118;-73
2021/07/14 07:11:12;;;;;;;3.00;2.20;;;;;;;13.34;nan;96130.56;3572283;40;20876;-73
2021/07/14 07:13:40;;;;;;;6.13;2.03;;;;;;;13.29;nan;96130.97;3566271;40;20442;-73
2021/07/14 07:16:07;;;;;;;2.30;1.90;;;;;;;13.28;nan;96113.50;3565376;40;20480;-73
2021/07/14 07:18:35;;;;;;;2.73;2.40;;;;;;;13.47;nan;96133.81;3568742;40;20460;-73
2021/07/14 07:21:07;;;;;;;2.60;2.20;;;;;;;13.42;nan;96125.47;3568708;40;20908;-75
2021/07/14 07:23:36;;;;;;;7.53;2.50;;;;;;;13.46;nan;96129.50;3568754;40;20725;-74
2021/07/14 07:26:06;;;;;;;5.50;2.00;;;;;;;13.58;nan;96125.81;3570146;40;20901;-72
2021/07/14 07:28:39;;;;;;;2.60;1.93;;;;;;;13.31;nan;96128.19;3567544;40;20792;-72
2021/07/14 07:31:09;;;;;;;13.87;2.23;;;;;;;13.51;nan;96131.75;3566652;40;20884;-73
2021/07/14 07:33:37;;;;;;;13.83;2.37;;;;;;;13.42;nan;96126.28;3568180;40;20774;-72
2021/07/14 07:36:06;;;;;;;2.33;1.93;;;;;;;13.61;nan;96125.50;3569623;39;20564;-73
2021/07/14 07:38:37;;;;;;;3.37;2.23;;;;;;;13.74;nan;96129.69;3561328;40;21084;-73
2021/07/14 07:41:06;;;;;;;2.97;2.23;;;;;;;13.74;nan;96127.06;3558007;40;21207;-71
2021/07/14 07:43:35;;;;;;;3.70;2.53;;;;;;;13.76;nan;96127.75;3558041;40;20562;-71
2021/07/14 07:46:02;;;;;;;3.20;2.10;;;;;;;13.90;nan;96127.38;3557030;40;20914;-73
2021/07/14 07:48:31;;;;;;;20.30;12.03;;;;;;;13.83;nan;96139.41;3571698;40;21093;-72
2021/07/14 07:50:59;;;;;;;3.13;1.70;;;;;;;13.95;nan;96143.56;3563073;40;20465;-72
2021/07/14 07:53:28;;;;;;;3.10;2.17;;;;;;;14.06;nan;96150.50;3563056;40;20477;-72
2021/07/14 07:55:56;;;;;;;5.57;2.70;;;;;;;14.20;nan;96158.00;3567422;40;20578;-75
2021/07/14 07:58:25;;;;;;;2.70;2.07;;;;;;;14.00;nan;96153.69;3566712;40;20838;-74
2021/07/14 08:00:54;;;;;;;3.20;2.43;;;;;;;13.78;nan;96154.75;3568140;40;20621;-74
2021/07/14 08:03:22;;;;;;;2.83;2.13;;;;;;;14.29;nan;96164.25;3572906;40;20452;-73
2021/07/14 08:05:50;;;;;;;4.50;2.10;;;;;;;14.39;nan;96157.16;3568564;40;20454;-73
2021/07/14 08:08:19;;;;;;;4.47;2.00;;;;;;;14.36;nan;96140.78;3572530;40;20430;-74
2021/07/14 08:10:47;;;;;;;4.23;1.90;;;;;;;14.48;nan;96160.75;3574152;40;20703;-76
2021/07/14 08:13:17;;;;;;;3.30;1.80;;;;;;;14.49;nan;96159.78;3571645;40;20449;-74
2021/07/14 08:15:47;;;;;;;2.23;2.00;;;;;;;14.15;nan;96156.72;3572472;40;20529;-74
2021/07/14 08:18:15;;;;;;;7.20;2.30;;;;;;;14.22;nan;96163.13;3568348;40;20464;-74
2021/07/14 08:20:43;;;;;;;6.13;2.20;;;;;;;14.66;nan;96174.06;3567221;40;21034;-71
2021/07/14 08:23:12;;;;;;;2.50;1.80;;;;;;;14.75;nan;96186.41;3568261;40;20843;-74
2021/07/14 08:25:40;;;;;;;3.67;2.23;;;;;;;14.72;nan;96197.25;3567339;40;20450;-71
2021/07/14 08:28:08;;;;;;;5.33;1.83;;;;;;;14.93;nan;96190.94;3571323;40;20465;-73
2021/07/14 08:30:36;;;;;;;3.50;2.00;;;;;;;14.93;nan;96201.50;3568443;40;20764;-71
2021/07/14 08:33:05;;;;;;;4.67;1.97;;;;;;;14.82;nan;96200.69;3569291;40;20766;-73
2021/07/14 08:35:40;;;;;;;5.30;2.53;;;;;;;14.81;nan;96201.66;3578616;40;20476;-75
2021/07/14 08:38:09;;;;;;;2.53;1.90;;;;;;;14.50;nan;96211.50;3577209;40;20454;-79
2021/07/14 08:40:39;;;;;;;6.63;2.47;;;;;;;14.57;nan;96203.91;3574847;40;20852;-72
2021/07/14 08:43:09;;;;;;;6.10;2.20;;;;;;;14.77;nan;96194.16;3576152;40;20942;-73
2021/07/14 08:45:38;;;;;;;2.63;2.00;;;;;;;14.58;nan;96189.75;3568579;40;20462;-74
2021/07/14 08:48:08;;;;;;;4.17;2.30;;;;;;;14.66;nan;96200.41;3576915;40;20602;-72
2021/07/14 08:50:42;;;;;;;7.20;2.07;;;;;;;14.38;nan;96187.09;3573670;40;20482;-74
2021/07/14 08:53:16;;;;;;;2.30;2.07;;;;;;;14.48;nan;96184.44;3573487;40;20441;-72
2021/07/14 08:55:44;;;;;;;4.33;2.90;;;;;;;14.69;nan;96197.50;3564554;39;21112;-71
2021/07/14 08:58:13;;;;;;;4.40;2.40;;;;;;;14.74;nan;96197.94;3569826;40;20487;-71
2021/07/14 09:00:41;;;;;;;3.23;2.50;;;;;;;14.49;nan;96206.38;3571548;40;20909;-72
2021/07/14 09:03:11;;;;;;;6.23;2.50;;;;;;;14.90;nan;96207.06;3574871;40;20446;-72
2021/07/14 09:05:39;;;;;;;3.13;2.10;;;;;;;15.20;nan;96214.75;3572404;40;20488;-74
2021/07/14 09:08:07;;;;;;;3.40;2.30;;;;;;;15.03;nan;96220.75;3569576;40;20462;-71
2021/07/14 09:10:35;;;;;;;9.80;2.40;;;;;;;14.97;nan;96221.31;3568528;40;20623;-73
2021/07/14 09:13:05;;;;;;;4.90;2.37;;;;;;;15.12;nan;96227.81;3572272;40;20461;-73
2021/07/14 09:15:40;;;;;;;5.03;2.00;;;;;;;15.20;nan;96222.66;3566859;40;20861;-73
2021/07/14 09:18:09;;;;;;;4.30;2.83;;;;;;;14.95;nan;96203.00;3569650;40;20483;-75
2021/07/14 09:20:38;;;;;;;6.03;3.10;;;;;;;15.25;nan;96216.97;3570258;40;21202;-73
2021/07/14 09:23:08;;;;;;;4.47;3.80;;;;;;;15.19;nan;96225.44;3571472;40;20528;-73
2021/07/14 09:25:42;;;;;;;5.90;3.10;;;;;;;15.18;nan;96216.69;3570087;40;20675;-72
2021/07/14 09:28:11;;;;;;;10.07;2.87;;;;;;;15.28;nan;96215.84;3572317;39;20450;-75
2021/07/14 09:30:44;;;;;;;7.63;3.00;;;;;;;15.50;nan;96207.56;3570140;40;21156;-74
2021/07/14 09:33:13;;;;;;;7.30;2.50;;;;;;;15.37;nan;96205.25;3570233;40;20844;-77
2021/07/14 09:35:45;;;;;;;21.57;11.53;;;;;;;15.36;nan;96210.66;3570303;39;20472;-77
2021/07/14 09:38:14;;;;;;;6.90;2.90;;;;;;;15.46;nan;96210.63;3568162;40;20460;-71
2021/07/14 09:40:44;;;;;;;6.90;3.03;;;;;;;15.52;nan;96207.41;3569916;40;21108;-75
2021/07/14 09:43:14;;;;;;;6.77;2.93;;;;;;;15.70;nan;96212.75;3571261;40;20457;-72
2021/07/14 09:45:46;;;;;;;9.60;2.83;;;;;;;15.72;nan;96205.50;3566709;40;20486;-73
2021/07/14 09:48:17;;;;;;;3.50;2.40;;;;;;;15.89;nan;96203.94;3564155;40;20461;-73
2021/07/14 09:50:48;;;;;;;4.13;2.80;;;;;;;16.04;nan;96191.06;3560015;40;20539;-72
2021/07/14 09:53:20;;;;;;;7.60;2.60;;;;;;;16.21;nan;96191.06;3569500;40;20756;-74
2021/07/14 09:55:50;;;;;;;9.37;2.70;;;;;;;16.37;nan;96195.66;3560320;40;20707;-73
2021/07/14 09:58:23;;;;;;;6.10;2.70;;;;;;;16.46;nan;96206.31;3560442;40;20599;-74
2021/07/14 10:00:54;;;;;;;6.43;2.40;;;;;;;16.48;nan;96194.59;3566868;40;20479;-73
2021/07/14 10:03:25;;;;;;;7.53;1.97;;;;;;;16.60;nan;96198.69;3559867;40;20488;-75
2021/07/14 10:06:11;;;;;;;5.07;2.50;;;;;;;16.65;nan;96200.84;3570885;40;20794;-74
2021/07/14 10:08:41;;;;;;;5.80;2.80;;;;;;;16.47;nan;96192.94;3571122;40;20476;-72
2021/07/14 10:11:14;;;;;;;3.13;2.20;;;;;;;16.78;nan;96196.00;3568235;40;20551;-73
2021/07/14 10:13:55;;;;;;;3.43;2.03;;;;;;;17.00;nan;96189.41;3568383;40;20446;-72
2021/07/14 10:16:25;;;;;;;5.13;1.97;;;;;;;16.94;nan;96194.50;3571573;40;20476;-73
2021/07/14 10:19:02;;;;;;;5.33;2.10;;;;;;;17.16;nan;96196.63;3569363;40;20901;-71
2021/07/14 10:21:34;;;;;;;3.30;1.70;;;;;;;16.98;nan;96193.22;3568540;40;20539;-74
2021/07/14 10:24:04;;;;;;;3.43;2.17;;;;;;;17.00;nan;96197.34;3568509;40;20450;-74
2021/07/14 10:26:56;;;;;;;5.20;1.70;;;;;;;17.59;nan;96189.56;3566955;40;20763;-72
2021/07/14 10:29:25;;;;;;;4.10;1.97;;;;;;;18.11;nan;96203.66;3561818;40;20495;-73
2021/07/14 10:31:54;;;;;;;3.93;1.90;;;;;;;18.41;nan;96207.56;3567674;40;20469;-73
2021/07/14 10:34:23;;;;;;;1.83;1.57;;;;;;;18.33;nan;96208.38;3565305;40;20500;-72
2021/07/14 10:36:52;;;;;;;1.80;1.63;;;;;;;18.49;nan;96212.03;3559625;40;20600;-74
2021/07/14 10:39:22;;;;;;;3.00;1.93;;;;;;;18.08;nan;96210.13;3566471;40;20484;-72
2021/07/14 10:41:51;;;;;;;6.80;1.53;;;;;;;18.31;nan;96206.88;3568717;40;20885;-74
2021/07/14 10:44:22;;;;;;;1.40;1.20;;;;;;;18.48;nan;96207.72;3570655;40;20433;-74
2021/07/14 10:46:51;;;;;;;2.23;1.40;;;;;;;18.50;nan;96208.38;3569695;40;20461;-72
2021/07/14 10:49:20;;;;;;;1.43;1.33;;;;;;;18.31;nan;96210.34;3559337;40;20928;-73
2021/07/14 10:51:48;;;;;;;3.60;1.10;;;;;;;18.15;nan;96210.31;3570480;40;20448;-73
2021/07/14 10:54:24;;;;;;;1.53;1.10;;;;;;;17.85;nan;96215.19;3566000;40;20855;-73
2021/07/14 10:56:53;;;;;;;1.53;1.23;;;;;;;17.89;nan;96216.53;3567329;40;20567;-74
2021/07/14 10:59:22;;;;;;;1.57;1.10;;;;;;;18.08;nan;96219.91;3570880;40;20453;-73
2021/07/14 11:01:51;;;;;;;3.47;1.20;;;;;;;18.08;nan;96219.91;3568015;40;20441;-72
2021/07/14 11:04:51;;;;;;;3.00;1.40;;;;;;;17.91;nan;96213.72;3556681;40;20872;-73
2021/07/14 11:07:35;;;;;;;7.23;3.30;;;;;;;18.22;nan;96210.50;3568525;40;20764;-71
2021/07/14 11:10:25;;;;;;;3.27;1.10;;;;;;;18.21;nan;96211.47;3567536;40;21148;-75
2021/07/14 11:12:54;;;;;;;2.90;1.10;;;;;;;18.31;nan;96212.19;3558963;40;20587;-73
2021/07/14 11:15:30;;;;;;;1.83;1.20;;;;;;;18.34;nan;96223.25;3565755;40;20598;-72
2021/07/14 11:17:58;;;;;;;1.17;1.07;;;;;;;18.34;nan;96228.56;3568947;40;20834;-73
2021/07/14 11:20:40;;;;;;;1.70;0.90;;;;;;;18.07;nan;96224.38;3567190;40;20563;-73
2021/07/14 11:23:20;;;;;;;1.57;1.23;;;;;;;18.10;nan;96224.03;3565671;40;20547;-73
2021/07/14 11:25:50;;;;;;;1.40;0.90;;;;;;;18.01;nan;96219.69;3569503;40;20819;-73
2021/07/14 11:28:19;;;;;;;1.90;1.17;;;;;;;18.24;nan;96222.59;3565985;40;20527;-72
2021/07/14 11:30:48;;;;;;;1.43;0.90;;;;;;;18.06;nan;96221.88;3565410;40;20919;-71
2021/07/14 11:33:23;;;;;;;4.60;1.17;;;;;;;18.11;nan;96222.22;3569614;40;20858;-72
2021/07/14 11:35:54;;;;;;;2.53;1.23;;;;;;;18.13;nan;96222.88;3569772;40;20474;-74
2021/07/14 11:38:26;;;;;;;3.80;0.93;;;;;;;18.31;nan;96220.13;3563784;40;20671;-72
2021/07/14 11:40:58;;;;;;;1.00;0.80;;;;;;;18.68;nan;96210.88;3571791;40;20838;-76
2021/07/14 11:43:39;;;;;;;1.87;0.90;;;;;;;18.67;nan;96206.56;3574703;40;20730;-73
2021/07/14 11:46:10;;;;;;;4.03;1.00;;;;;;;19.45;nan;96202.53;3572151;40;20836;-75
2021/07/14 11:48:39;;;;;;;4.70;0.90;;;;;;;19.28;nan;96209.69;3568233;40;20499;-74
2021/07/14 11:51:19;;;;;;;2.23;0.90;;;;;;;19.28;nan;96202.56;3567975;40;20473;-72
2021/07/14 11:53:48;;;;;;;1.17;1.07;;;;;;;19.08;nan;96206.59;3569330;40;20801;-73
2021/07/14 11:56:22;;;;;;;1.20;1.00;;;;;;;18.72;nan;96207.75;3571705;40;20457;-73
2021/07/14 11:58:53;;;;;;;0.90;0.70;;;;;;;18.84;nan;96207.44;3568681;40;20910;-72
2021/07/14 12:01:47;;;;;;;1.80;1.00;;;;;;;19.17;nan;96198.44;3566415;40;20676;-74
2021/07/14 12:04:15;;;;;;;1.20;0.70;;;;;;;19.03;nan;96196.47;3567775;40;20499;-73
2021/07/14 12:06:46;;;;;;;1.13;0.90;;;;;;;18.94;nan;96200.13;3568778;40;20748;-74
2021/07/14 12:09:29;;;;;;;1.53;0.90;;;;;;;18.66;nan;96200.44;3569581;40;21118;-73